Time;durP1;ratioP1;P1;durP2;ratioP2;P2;SDS_P1;SDS_P2;PMS_P1;PMS_P2;Temp;Humidity;BMP_temperature;BMP_pressure;BME280_temperature;BME280_humidity;BME280_pressure;Samples;Min_cycle;Max_cycle;Signal;HPM_P1;HPM_P2
2022/12/19 00:01:31;;;;;;;5.12;4.12;;;;;;;-1.59;69.81;102631.17;1835375;77;21770;-85
2022/12/19 00:04:00;;;;;;;5.72;4.97;;;;;;;-1.59;69.99;102630.31;1835710;78;21427;-84
2022/12/19 00:06:27;;;;;;;5.45;3.92;;;;;;;-1.60;69.95;102638.45;1834985;76;20970;-84
2022/12/19 00:08:54;;;;;;;5.35;3.85;;;;;;;-1.62;70.00;102630.22;1835329;78;20958;-84
2022/12/19 00:11:23;;;;;;;5.97;4.12;;;;;;;-1.67;70.13;102626.26;1835232;77;21277;-85
2022/12/19 00:13:49;;;;;;;4.58;4.08;;;;;;;-1.69;70.07;102631.39;1835183;77;21120;-84
2022/12/19 00:16:19;;;;;;;4.83;3.65;;;;;;;-1.71;70.48;102629.20;1835059;77;20855;-84
2022/12/19 00:18:47;;;;;;;4.37;3.75;;;;;;;-1.67;70.34;102627.16;1835504;77;20883;-85
2022/12/19 00:21:16;;;;;;;5.58;3.72;;;;;;;-1.67;70.43;102628.83;1835497;77;21436;-84
2022/12/19 00:23:42;;;;;;;4.65;3.52;;;;;;;-1.69;70.26;102630.50;1835029;77;20867;-84
2022/12/19 00:26:27;;;;;;;5.85;4.35;;;;;;;-1.75;70.40;102640.23;1835056;76;21099;-86
2022/12/19 00:28:57;;;;;;;4.08;3.50;;;;;;;-1.78;70.61;102640.58;1838390;77;26672;-85
2022/12/19 00:31:26;;;;;;;4.00;3.08;;;;;;;-1.79;70.80;102640.14;1849441;77;20841;-84
2022/12/19 00:33:53;;;;;;;5.83;4.28;;;;;;;-1.82;70.92;102638.36;1849451;77;20940;-85
2022/12/19 00:36:23;;;;;;;5.67;4.67;;;;;;;-1.82;71.04;102637.47;1849469;77;20885;-84
2022/12/19 00:38:51;;;;;;;5.20;3.80;;;;;;;-1.82;71.16;102648.66;1849452;77;21213;-85
2022/12/19 00:41:21;;;;;;;5.25;3.55;;;;;;;-1.81;71.24;102654.66;1849806;77;20956;-85
2022/12/19 00:43:55;;;;;;;5.85;3.30;;;;;;;-1.79;71.58;102653.86;1849356;77;20959;-85
2022/12/19 00:46:23;;;;;;;8.00;5.05;;;;;;;-1.70;71.59;102657.06;1850394;77;21316;-85
2022/12/19 00:48:50;;;;;;;4.55;3.72;;;;;;;-1.67;71.79;102655.84;1849558;77;21391;-85
2022/12/19 00:51:19;;;;;;;5.37;3.80;;;;;;;-1.56;71.69;102650.52;1849451;77;21220;-84
2022/12/19 00:53:47;;;;;;;4.50;3.60;;;;;;;-1.55;71.54;102658.71;1849435;77;21051;-84
2022/12/19 00:56:18;;;;;;;4.67;3.45;;;;;;;-1.57;71.50;102650.52;1849405;77;20862;-85
2022/12/19 00:58:44;;;;;;;4.97;3.85;;;;;;;-1.58;71.69;102648.75;1849370;76;20937;-86
2022/12/19 01:01:20;;;;;;;5.30;3.52;;;;;;;-1.56;71.68;102644.52;1849342;76;20912;-85
2022/12/19 01:03:46;;;;;;;4.03;2.98;;;;;;;-1.52;71.68;102648.91;1849835;77;21378;-83
2022/12/19 01:06:13;;;;;;;4.97;3.30;;;;;;;-1.55;71.75;102641.13;1849288;76;20874;-85
2022/12/19 01:08:40;;;;;;;5.75;3.45;;;;;;;-1.55;72.19;102647.56;1849271;77;21335;-84
2022/12/19 01:11:06;;;;;;;4.58;3.70;;;;;;;-1.54;72.16;102646.28;1849286;77;20929;-86
2022/12/19 01:13:36;;;;;;;6.05;4.42;;;;;;;-1.52;72.23;102648.48;1849211;76;20909;-86
2022/12/19 01:16:05;;;;;;;4.30;3.33;;;;;;;-1.52;72.34;102648.91;1849379;77;21777;-84
2022/12/19 01:18:31;;;;;;;4.03;3.15;;;;;;;-1.47;72.35;102649.86;1849127;77;20863;-85
2022/12/19 01:21:01;;;;;;;5.20;3.98;;;;;;;-1.43;72.33;102647.82;1849391;77;20913;-85
2022/12/19 01:23:29;;;;;;;4.15;3.58;;;;;;;-1.41;72.26;102655.16;1849260;77;20893;-87
2022/12/19 01:25:55;;;;;;;3.87;3.10;;;;;;;-1.37;72.06;102653.11;1849344;77;20925;-85
2022/12/19 01:28:22;;;;;;;4.30;3.62;;;;;;;-1.38;72.17;102650.09;1850271;77;21221;-84
2022/12/19 01:30:49;;;;;;;4.35;3.45;;;;;;;-1.39;72.17;102653.48;1836131;76;20962;-84
2022/12/19 01:33:16;;;;;;;4.75;3.45;;;;;;;-1.38;72.47;102657.81;1834880;77;20918;-85
2022/12/19 01:35:44;;;;;;;4.47;3.52;;;;;;;-1.34;72.46;102658.73;1834894;77;20922;-85
2022/12/19 01:38:18;;;;;;;4.87;3.50;;;;;;;-1.34;72.48;102657.45;1834970;77;20879;-85
2022/12/19 01:42:43;;;;;;;4.30;3.40;;;;;;;-1.24;72.49;102660.69;1871375;76;22458;-84
2022/12/19 01:45:18;;;;;;;5.62;4.33;;;;;;;-1.27;72.44;102661.50;1835017;77;20959;-83
2022/12/19 01:47:52;;;;;;;3.70;3.20;;;;;;;-1.26;72.49;102658.07;1827924;78;21123;-85
2022/12/19 01:50:26;;;;;;;4.92;3.30;;;;;;;-1.19;72.54;102662.08;1826129;78;20831;-85
2022/12/19 01:52:52;;;;;;;4.90;3.65;;;;;;;-1.11;72.50;102661.80;1824032;78;20903;-86
2022/12/19 01:55:19;;;;;;;4.08;2.92;;;;;;;-1.06;72.15;102667.94;1823803;78;20986;-85
2022/12/19 01:57:52;;;;;;;3.98;2.67;;;;;;;-1.04;72.10;102671.41;1823669;78;20936;-84
2022/12/19 02:00:19;;;;;;;4.12;3.37;;;;;;;-0.98;72.05;102670.66;1823606;78;21102;-86
2022/12/19 02:03:00;;;;;;;3.58;3.25;;;;;;;-0.95;71.91;102664.30;1823675;78;20863;-87
2022/12/19 02:05:27;;;;;;;4.60;2.95;;;;;;;-0.91;71.83;102674.70;1823796;78;20835;-86
2022/12/19 02:07:54;;;;;;;3.83;2.77;;;;;;;-0.94;71.67;102666.89;1819159;78;20990;-85
2022/12/19 02:10:21;;;;;;;4.50;3.60;;;;;;;-0.98;71.70;102668.95;1824484;78;20978;-82
2022/12/19 02:12:48;;;;;;;3.92;3.47;;;;;;;-1.01;71.81;102669.32;1823970;77;21117;-85
2022/12/19 02:15:15;;;;;;;5.90;3.72;;;;;;;-1.02;71.88;102674.00;1823675;78;20977;-84
2022/12/19 02:18:14;;;;;;;6.50;4.60;;;;;;;-0.99;72.05;102687.82;1792269;78;20950;-85
2022/12/19 02:21:13;;;;;;;5.28;3.27;;;;;;;-0.97;72.01;102679.71;1820442;78;20978;-85
2022/12/19 02:24:16;;;;;;;5.50;3.80;;;;;;;-0.90;72.11;102685.86;1823811;78;20943;-85
2022/12/19 02:26:52;;;;;;;11.53;3.90;;;;;;;-0.83;71.90;102676.12;1823680;78;21216;-85
2022/12/19 02:29:37;;;;;;;4.67;3.22;;;;;;;-0.75;71.76;102678.45;1823593;78;20946;-85
2022/12/19 02:32:42;;;;;;;4.00;2.52;;;;;;;-0.75;71.04;102691.33;1823814;77;20918;-85
2022/12/19 02:35:15;;;;;;;;;;;;;;;-0.76;70.86;102692.15;1826472;77;20926;-85
2022/12/19 02:37:56;;;;;;;5.25;3.35;;;;;;;-0.78;70.55;102706.70;1800399;78;20400;-83
2022/12/19 02:40:32;;;;;;;3.52;2.92;;;;;;;-0.78;70.60;102704.55;1823941;78;21122;-84
2022/12/19 02:43:01;;;;;;;4.85;3.52;;;;;;;-0.76;70.33;102710.61;1823782;78;20992;-84
2022/12/19 02:45:32;;;;;;;3.37;2.83;;;;;;;-0.77;70.22;102706.31;1825946;78;21030;-85
2022/12/19 02:48:01;;;;;;;4.40;3.60;;;;;;;-0.76;70.12;102710.61;1824954;78;20907;-86
2022/12/19 02:50:42;;;;;;;3.08;2.77;;;;;;;-0.74;69.98;102714.95;1823845;78;20855;-85
2022/12/19 02:53:13;;;;;;;5.25;3.30;;;;;;;-0.78;70.13;102713.14;1824064;78;21238;-83
2022/12/19 02:56:15;;;;;;;4.28;3.02;;;;;;;-0.77;69.90;102716.61;1823383;78;20950;-85
2022/12/19 02:59:19;;;;;;;4.62;2.65;;;;;;;-0.84;69.84;102721.63;1823142;78;20962;-84
2022/12/19 03:02:06;;;;;;;2.80;2.42;;;;;;;-0.87;69.72;102719.39;1823257;78;20883;-84
2022/12/19 03:04:59;;;;;;;3.10;2.80;;;;;;;-0.90;69.58;102722.78;1824515;78;20958;-84
2022/12/19 03:07:37;;;;;;;5.05;3.20;;;;;;;-0.90;69.79;102724.06;1823549;78;21142;-85
2022/12/19 03:10:16;;;;;;;4.30;3.72;;;;;;;-0.88;69.63;102732.70;1823203;78;20931;-85
2022/12/19 03:12:56;;;;;;;3.33;3.00;;;;;;;-0.89;69.47;102738.70;1823143;77;21325;-83
2022/12/19 03:15:26;;;;;;;2.60;2.37;;;;;;;-0.92;69.43;102745.05;1822478;77;20907;-84
2022/12/19 03:17:58;;;;;;;4.67;3.17;;;;;;;-0.98;69.37;102743.62;1806661;79;20932;-85
2022/12/19 03:20:42;;;;;;;3.60;3.05;;;;;;;-1.02;69.57;102741.84;1806570;79;21243;-86
2022/12/19 03:23:08;;;;;;;3.50;2.55;;;;;;;-1.03;69.37;102746.95;1806632;79;21459;-85
2022/12/19 03:25:36;;;;;;;4.25;3.42;;;;;;;-1.13;69.52;102760.91;1806618;79;20884;-86
2022/12/19 03:28:07;;;;;;;4.17;3.27;;;;;;;-1.21;69.83;102770.14;1806772;79;21013;-85
2022/12/19 03:30:34;;;;;;;3.72;3.02;;;;;;;-1.22;70.09;102765.84;1806649;79;20857;-85
2022/12/19 03:33:01;;;;;;;5.45;3.83;;;;;;;-1.21;70.17;102761.13;1806761;78;21140;-86
2022/12/19 03:35:30;;;;;;;3.72;3.10;;;;;;;-1.16;70.02;102772.83;1806895;79;20869;-84
2022/12/19 03:37:56;;;;;;;3.77;3.40;;;;;;;-1.16;70.02;102777.55;1807311;78;20915;-86
2022/12/19 03:40:24;;;;;;;5.25;3.80;;;;;;;-1.15;69.77;102779.73;1806376;79;20936;-86
2022/12/19 03:43:09;;;;;;;4.80;3.45;;;;;;;-1.20;69.84;102779.63;1821625;78;20962;-85
2022/12/19 03:46:01;;;;;;;5.50;3.87;;;;;;;-1.23;69.90;102784.68;1829181;78;21189;-85
2022/12/19 03:48:47;;;;;;;5.37;4.53;;;;;;;-1.29;70.13;102787.09;1826255;77;21432;-85
2022/12/19 03:52:01;;;;;;;5.37;3.77;;;;;;;-1.28;70.25;102788.44;1829044;78;21024;-85
2022/12/19 03:54:31;;;;;;;4.70;3.80;;;;;;;-1.23;70.29;102796.69;1829206;77;20930;-85
2022/12/19 03:57:05;;;;;;;3.27;2.83;;;;;;;-1.22;70.28;102798.02;1829175;78;21388;-85
2022/12/19 03:59:55;;;;;;;;;;;;;;;-1.30;69.98;102795.24;1832052;78;21269;-86
2022/12/19 04:02:22;;;;;;;3.75;3.15;;;;;;;-1.45;70.09;102806.45;1829281;78;20083;-85
2022/12/19 04:04:57;;;;;;;4.28;3.35;;;;;;;-1.62;70.53;102813.75;1829099;78;21045;-84
2022/12/19 04:07:28;;;;;;;5.08;3.50;;;;;;;-1.75;70.82;102818.98;1744026;81;20949;-84
2022/12/19 04:09:55;;;;;;;3.95;2.67;;;;;;;-1.79;71.53;102818.44;1719350;82;21411;-85
2022/12/19 04:12:26;;;;;;;3.30;2.87;;;;;;;-1.78;71.59;102821.49;1744105;81;21422;-85
2022/12/19 04:14:53;;;;;;;3.65;3.25;;;;;;;-1.81;71.52;102825.24;1743984;82;20996;-85
2022/12/19 04:17:41;;;;;;;3.80;3.20;;;;;;;-1.88;71.84;102838.77;1744222;81;21036;-84
2022/12/19 04:20:12;;;;;;;5.62;4.12;;;;;;;-1.92;72.08;102842.08;1744741;81;20979;-84
2022/12/19 04:23:05;;;;;;;4.28;3.70;;;;;;;-1.98;72.52;102840.63;1743100;81;20899;-83
2022/12/19 04:25:39;;;;;;;4.20;3.12;;;;;;;-2.01;72.62;102846.98;1744113;81;21193;-82
2022/12/19 04:28:20;;;;;;;4.40;3.67;;;;;;;-2.08;72.81;102851.08;1744037;81;20902;-84
2022/12/19 04:30:47;;;;;;;4.35;3.25;;;;;;;-2.14;73.19;102849.61;1714207;83;20909;-86
2022/12/19 04:33:13;;;;;;;3.85;3.27;;;;;;;-2.16;73.26;102857.27;1714624;82;20890;-86
2022/12/19 04:35:40;;;;;;;5.00;3.42;;;;;;;-2.22;73.33;102863.54;1714616;82;20964;-84
2022/12/19 04:38:06;;;;;;;4.17;3.15;;;;;;;-2.30;73.51;102855.59;1714553;83;21723;-86
2022/12/19 04:40:34;;;;;;;3.80;2.98;;;;;;;-2.33;73.84;102857.22;1714510;82;20925;-84
2022/12/19 04:43:03;;;;;;;5.05;3.52;;;;;;;-2.31;73.95;102865.42;1718346;82;20980;-86
2022/12/19 04:45:30;;;;;;;5.40;3.83;;;;;;;-2.32;74.21;102870.09;1720143;82;21057;-86
2022/12/19 04:47:57;;;;;;;7.87;5.03;;;;;;;-2.26;74.39;102887.82;1720099;82;20893;-83
2022/12/19 04:50:23;;;;;;;4.42;3.60;;;;;;;-2.15;74.32;102886.02;1719787;82;21154;-85
2022/12/19 04:52:50;;;;;;;5.15;3.83;;;;;;;-2.15;73.90;102886.44;1719626;83;21000;-85
2022/12/19 04:55:17;;;;;;;5.30;4.15;;;;;;;-2.23;73.88;102886.61;1719916;82;20893;-84
2022/12/19 04:57:44;;;;;;;8.10;4.85;;;;;;;-2.29;74.19;102891.14;1723968;81;21524;-85
2022/12/19 05:00:12;;;;;;;6.62;3.95;;;;;;;-2.29;74.44;102897.56;1729372;81;20959;-84
2022/12/19 05:02:39;;;;;;;7.22;3.92;;;;;;;-2.30;74.42;102904.83;1730313;83;21314;-88
2022/12/19 05:05:07;;;;;;;7.08;3.72;;;;;;;-2.33;74.51;102909.47;1729171;81;20892;-87
2022/12/19 05:07:33;;;;;;;4.15;3.33;;;;;;;-2.27;74.55;102920.75;1761344;78;20879;-84
2022/12/19 05:10:00;;;;;;;8.43;4.33;;;;;;;-2.29;74.57;102914.27;1823927;77;21428;-85
2022/12/19 05:12:28;;;;;;;8.30;6.20;;;;;;;-2.33;74.38;102926.17;1823778;78;21403;-84
2022/12/19 05:14:54;;;;;;;5.92;4.35;;;;;;;-2.35;74.59;102932.96;1824075;78;21205;-84
2022/12/19 05:17:21;;;;;;;9.85;5.75;;;;;;;-2.32;74.61;102936.03;1824185;78;20959;-86
2022/12/19 05:19:48;;;;;;;15.55;7.30;;;;;;;-2.35;74.65;102933.38;1824265;77;20855;-85
2022/12/19 05:22:18;;;;;;;8.43;5.60;;;;;;;-2.38;74.84;102931.59;1824292;78;20871;-86
2022/12/19 05:24:47;;;;;;;6.60;4.67;;;;;;;-2.39;75.19;102938.82;1820063;77;20876;-86
2022/12/19 05:27:13;;;;;;;5.50;4.60;;;;;;;-2.37;75.23;102946.59;1824926;77;21181;-86
2022/12/19 05:29:40;;;;;;;5.17;3.95;;;;;;;-2.34;75.14;102945.39;1826723;78;20955;-86
2022/12/19 05:32:06;;;;;;;5.75;4.87;;;;;;;-2.34;75.32;102946.67;1827108;76;20906;-86
2022/12/19 05:34:33;;;;;;;5.47;4.30;;;;;;;-2.33;75.28;102949.72;1826817;76;20852;-84
2022/12/19 05:37:02;;;;;;;5.42;3.85;;;;;;;-2.31;75.57;102959.22;1827156;77;20958;-85
2022/12/19 05:39:30;;;;;;;6.05;4.40;;;;;;;-2.28;75.43;102957.56;1827191;78;21235;-85
2022/12/19 05:41:56;;;;;;;6.15;4.85;;;;;;;-2.28;75.58;102967.42;1826908;76;20903;-86
2022/12/19 05:44:23;;;;;;;6.15;4.25;;;;;;;-2.20;75.70;102965.08;1827209;76;20930;-83
2022/12/19 05:46:50;;;;;;;7.53;5.17;;;;;;;-2.14;75.61;102967.42;1827067;76;20954;-86
2022/12/19 05:49:17;;;;;;;5.87;4.72;;;;;;;-2.07;75.16;102976.61;1827394;78;20804;-84
2022/12/19 05:51:45;;;;;;;4.80;4.12;;;;;;;-2.10;75.16;102972.25;1827328;78;21191;-85
2022/12/19 05:54:11;;;;;;;4.97;4.22;;;;;;;-2.08;75.02;102982.17;1826761;78;20994;-84
2022/12/19 05:56:38;;;;;;;6.05;4.53;;;;;;;-2.05;74.84;102986.11;1826776;78;20903;-86
2022/12/19 05:59:06;;;;;;;6.42;5.22;;;;;;;-2.08;74.38;102989.88;1826454;78;21014;-85
2022/12/19 06:01:33;;;;;;;7.67;4.40;;;;;;;-2.15;74.51;102995.67;1826473;78;20922;-85
2022/12/19 06:04:03;;;;;;;6.05;4.15;;;;;;;-2.16;74.58;103001.62;1825334;78;21477;-85
2022/12/19 06:06:30;;;;;;;8.73;5.42;;;;;;;-2.16;74.61;103007.62;1824876;78;20951;-86
2022/12/19 06:08:58;;;;;;;5.95;4.40;;;;;;;-2.06;74.79;103019.09;1824114;77;20879;-85
2022/12/19 06:11:26;;;;;;;6.55;4.53;;;;;;;-1.98;74.40;103016.73;1796673;78;20926;-87
2022/12/19 06:13:53;;;;;;;6.47;4.42;;;;;;;-1.92;73.86;103007.52;1824238;77;21451;-85
2022/12/19 06:16:20;;;;;;;5.78;4.12;;;;;;;-1.92;73.57;103015.22;1823969;78;21150;-84
2022/12/19 06:18:47;;;;;;;11.40;5.40;;;;;;;-1.91;73.23;103025.98;1823846;78;20911;-84
2022/12/19 06:21:19;;;;;;;8.48;4.20;;;;;;;-1.90;72.66;103029.00;1823913;77;20926;-84
2022/12/19 06:23:46;;;;;;;7.35;4.87;;;;;;;-1.92;72.92;103030.66;1824124;78;20943;-86
2022/12/19 06:26:16;;;;;;;7.72;5.30;;;;;;;-1.84;72.91;103042.89;1824952;77;20903;-83
2022/12/19 06:28:43;;;;;;;6.22;4.37;;;;;;;-1.79;72.80;103036.19;1825502;77;21268;-82
2022/12/19 06:31:10;;;;;;;6.55;5.03;;;;;;;-1.72;72.43;103035.11;1825218;78;20981;-83
2022/12/19 06:33:37;;;;;;;6.20;3.92;;;;;;;-1.75;72.17;103026.45;1823815;77;20871;-85
2022/12/19 06:36:10;;;;;;;5.45;3.65;;;;;;;-1.81;71.69;103033.55;1824123;78;20931;-84
2022/12/19 06:38:38;;;;;;;5.10;4.60;;;;;;;-1.90;71.60;103034.56;1824126;78;21400;-83
2022/12/19 06:43:51;;;;;;;5.53;4.03;;;;;;;-1.95;71.58;103041.28;1824169;77;20942;-84
2022/12/19 06:46:17;;;;;;;8.88;4.33;;;;;;;-2.01;71.65;103044.52;1823970;78;20899;-86
2022/12/19 06:48:44;;;;;;;5.15;3.75;;;;;;;-2.04;72.05;103040.58;1823915;77;20947;-84
2022/12/19 06:51:11;;;;;;;7.03;4.72;;;;;;;-1.99;71.95;103042.00;1824050;78;20973;-86
2022/12/19 06:53:37;;;;;;;6.08;4.08;;;;;;;-2.02;71.93;103045.35;1823939;78;21748;-85
2022/12/19 06:56:04;;;;;;;6.83;3.90;;;;;;;-1.94;72.18;103049.44;1823875;77;21400;-87
2022/12/19 06:58:32;;;;;;;5.78;3.72;;;;;;;-1.85;72.19;103050.13;1824124;77;20958;-86
2022/12/19 07:01:03;;;;;;;4.53;3.52;;;;;;;-1.76;71.68;103055.55;1824848;78;21518;-89
2022/12/19 07:03:38;;;;;;;6.53;3.92;;;;;;;-1.79;71.16;103057.63;1824694;78;20950;-85
2022/12/19 07:06:05;;;;;;;4.70;3.95;;;;;;;-1.89;71.17;103062.02;1824838;78;21127;-84
2022/12/19 07:08:32;;;;;;;4.92;3.60;;;;;;;-1.94;71.29;103070.87;1824618;78;20982;-84
2022/12/19 07:10:58;;;;;;;6.87;2.90;;;;;;;-1.95;71.06;103075.98;1825926;77;20832;-85
2022/12/19 11:48:49;;;;;;;11.80;6.37;;;;;;;-0.94;64.39;103225.75;1658835;85;20973;-85
2022/12/19 11:51:46;;;;;;;9.18;6.80;;;;;;;-0.94;64.01;103240.33;1656613;85;21668;-86
2022/12/19 11:54:26;;;;;;;11.93;6.17;;;;;;;-0.94;63.81;103242.48;1656800;84;21156;-87
2022/12/19 11:56:53;;;;;;;9.50;7.05;;;;;;;-0.92;63.75;103238.26;1657071;85;21005;-86
2022/12/19 11:59:36;;;;;;;13.30;6.17;;;;;;;-0.85;63.74;103239.31;1655857;85;20962;-87
2022/12/19 12:02:30;;;;;;;12.07;6.92;;;;;;;-0.77;63.59;103250.73;1610033;87;21106;-87
2022/12/19 12:05:31;;;;;;;10.00;6.17;;;;;;;-0.69;63.42;103252.23;1630302;86;21467;-86
2022/12/19 12:08:35;;;;;;;13.75;5.92;;;;;;;-0.58;63.53;103243.10;1689975;82;21143;-86
2022/12/19 12:11:34;;;;;;;10.03;6.42;;;;;;;-0.40;63.33;103240.59;1692205;82;20913;-87
2022/12/19 12:14:24;;;;;;;10.53;5.85;;;;;;;-0.17;63.29;103245.11;1693111;83;20940;-86
2022/12/19 12:17:14;;;;;;;7.47;5.40;;;;;;;0.07;62.01;103253.88;1656374;84;20921;-85
2022/12/19 12:19:57;;;;;;;7.85;5.95;;;;;;;0.14;61.27;103261.84;1663613;83;21007;-86
2022/12/19 12:22:47;;;;;;;11.45;6.78;;;;;;;0.12;61.34;103250.61;1670353;82;21228;-87
2022/12/19 12:25:53;;;;;;;10.03;6.33;;;;;;;0.11;61.42;103246.30;1696397;83;20996;-86
2022/12/19 12:28:47;;;;;;;11.33;6.35;;;;;;;0.14;61.69;103252.81;1682893;83;21098;-88
2022/12/19 12:31:51;;;;;;;9.40;5.72;;;;;;;0.11;61.71;103251.84;1667209;84;21469;-87
2022/12/19 12:35:00;;;;;;;9.98;5.37;;;;;;;0.09;62.15;103250.54;1662622;84;21076;-86
2022/12/19 12:38:12;;;;;;;10.48;6.03;;;;;;;0.07;62.39;103239.70;1675830;84;21184;-87
2022/12/19 12:41:10;;;;;;;9.90;5.65;;;;;;;0.00;62.73;103258.05;1673361;83;21031;-88
2022/12/19 12:43:54;;;;;;;9.38;5.35;;;;;;;0.01;63.16;103267.94;1673289;84;20945;-86
2022/12/19 12:46:29;;;;;;;6.80;5.47;;;;;;;-0.02;63.64;103276.05;1672503;83;20997;-87
2022/12/19 12:49:04;;;;;;;9.50;5.97;;;;;;;-0.12;63.88;103265.44;1669862;83;21035;-88
2022/12/19 12:51:32;;;;;;;11.43;7.05;;;;;;;-0.11;64.25;103278.77;1666265;84;21879;-87
2022/12/19 12:54:06;;;;;;;101.82;57.23;;;;;;;-0.18;64.34;103272.58;1653734;83;20891;-85
2022/12/19 12:56:35;;;;;;;11.38;7.65;;;;;;;-0.25;65.19;103271.53;1643524;86;21571;-86
2022/12/19 12:59:08;;;;;;;9.40;6.50;;;;;;;-0.33;65.57;103276.91;1652317;85;21002;-87
2022/12/19 13:01:37;;;;;;;8.40;5.30;;;;;;;-0.40;65.99;103277.58;1694510;82;21043;-85
2022/12/19 13:04:16;;;;;;;6.30;4.20;;;;;;;-0.49;66.11;103295.33;1691348;82;21256;-86
2022/12/19 13:06:57;;;;;;;6.17;3.70;;;;;;;-0.59;66.41;103295.91;1700290;82;20956;-84
2022/12/19 13:09:32;;;;;;;7.28;4.78;;;;;;;-0.68;66.62;103302.53;1694771;82;21501;-87
2022/12/19 13:14:50;;;;;;;5.33;4.30;;;;;;;-0.87;67.34;103308.84;1687331;84;20921;-87
2022/12/19 13:17:34;;;;;;;7.47;4.65;;;;;;;-0.97;67.47;103315.81;1653444;84;21741;-86
2022/12/19 13:20:06;;;;;;;5.55;3.90;;;;;;;-1.02;67.71;103329.34;1692260;82;26416;-88
2022/12/19 13:22:38;;;;;;;4.85;3.65;;;;;;;-1.13;67.92;103324.75;1648404;85;20962;-86
2022/12/19 13:25:36;;;;;;;6.75;4.97;;;;;;;-1.17;68.16;103325.89;1691463;82;21080;-86
2022/12/19 13:28:21;;;;;;;6.10;4.08;;;;;;;-1.25;68.42;103321.34;1696746;82;21552;-86
2022/12/19 13:31:12;;;;;;;6.22;4.95;;;;;;;-1.33;68.54;103330.54;1686339;82;21298;-86
2022/12/19 13:33:57;;;;;;;5.53;4.78;;;;;;;-1.42;68.74;103321.62;1687358;82;20905;-85
2022/12/19 13:36:52;;;;;;;5.72;3.58;;;;;;;-1.51;69.14;103322.22;1688416;82;21011;-85
2022/12/19 13:39:34;;;;;;;5.55;4.22;;;;;;;-1.51;69.51;103328.65;1702425;82;22042;-87
2022/12/19 13:44:58;;;;;;;7.05;5.03;;;;;;;-1.56;70.05;103332.32;1686682;84;21470;-86
2022/12/19 13:47:25;;;;;;;6.65;4.08;;;;;;;-1.51;70.24;103326.07;1702206;82;21062;-85
2022/12/19 13:49:52;;;;;;;9.05;5.70;;;;;;;-1.48;70.08;103337.33;1687338;83;20894;-85
2022/12/19 13:52:18;;;;;;;10.82;4.35;;;;;;;-1.49;69.89;103336.88;1685048;82;20921;-86
2022/12/19 13:54:55;;;;;;;5.22;4.33;;;;;;;-1.54;70.38;103340.10;1677481;83;21065;-85
2022/12/19 13:57:30;;;;;;;9.50;4.78;;;;;;;-1.54;70.51;103334.95;1684857;82;21150;-86
2022/12/19 14:00:04;;;;;;;5.87;4.12;;;;;;;-1.52;70.82;103339.33;1693426;82;20932;-86
2022/12/19 14:02:37;;;;;;;4.58;4.10;;;;;;;-1.55;70.83;103344.38;1688100;83;20953;-87
2022/12/19 14:05:10;;;;;;;7.10;3.62;;;;;;;-1.60;71.23;103339.88;1685689;82;21064;-86
2022/12/19 14:07:39;;;;;;;4.83;4.30;;;;;;;-1.74;71.26;103340.70;1693244;82;20889;-86
2022/12/19 14:10:22;;;;;;;8.03;4.92;;;;;;;-1.76;71.53;103331.63;1698768;82;21245;-85
2022/12/19 14:15:37;;;;;;;6.72;4.95;;;;;;;-1.75;71.27;103323.11;1698354;82;20971;-88
2022/12/19 14:18:21;;;;;;;10.30;5.62;;;;;;;-1.78;71.42;103322.12;1687663;82;20932;-86
2022/12/19 14:20:49;;;;;;;5.65;4.47;;;;;;;-1.76;71.84;103312.34;1680810;83;20909;-87
2022/12/19 14:23:16;;;;;;;8.58;5.37;;;;;;;-1.67;71.93;103313.07;1692647;82;21096;-86
2022/12/19 14:25:52;;;;;;;8.88;4.62;;;;;;;-1.65;71.50;103305.41;1695499;81;20890;-87
2022/12/19 14:28:26;;;;;;;5.05;4.50;;;;;;;-1.70;71.27;103293.69;1681360;83;20902;-86
2022/12/19 14:30:57;;;;;;;;;;;;;;;-1.80;71.20;103298.94;1676831;82;20981;-86
2022/12/19 14:33:40;;;;;;;7.20;4.40;;;;;;;-1.85;71.58;103306.88;1693363;82;20105;-84
2022/12/19 14:36:07;;;;;;;5.20;4.30;;;;;;;-1.84;71.70;103323.22;1705838;84;21155;-85
2022/12/19 14:38:34;;;;;;;10.25;4.10;;;;;;;-1.91;71.67;103338.42;1705212;84;21448;-86
2022/12/19 14:41:00;;;;;;;7.05;4.30;;;;;;;-2.00;72.09;103341.95;1708056;84;20881;-85
2022/12/19 14:43:38;;;;;;;8.13;4.85;;;;;;;-2.01;72.25;103358.19;1700560;82;20981;-86
2022/12/19 14:46:25;;;;;;;10.25;5.40;;;;;;;-2.04;72.70;103358.09;1684015;82;20992;-85
2022/12/19 14:49:00;;;;;;;9.05;5.92;;;;;;;-2.02;73.06;103364.55;1680751;84;21246;-87
2022/12/19 14:51:35;;;;;;;11.15;8.25;;;;;;;-2.02;73.10;103369.69;1691316;82;21540;-86
2022/12/19 14:54:14;;;;;;;8.35;6.22;;;;;;;-1.99;73.35;103363.39;1694275;82;20912;-85
2022/12/19 14:56:57;;;;;;;9.13;5.72;;;;;;;-1.98;73.36;103367.31;1689306;82;20917;-86
2022/12/19 14:59:44;;;;;;;6.55;4.53;;;;;;;-1.96;73.44;103364.36;1682422;82;20940;-86
2022/12/19 15:02:31;;;;;;;6.58;4.55;;;;;;;-2.01;73.33;103360.75;1686725;82;21250;-86
2022/12/19 15:05:05;;;;;;;12.20;6.45;;;;;;;-2.10;73.41;103347.16;1654643;84;20918;-88
2022/12/19 15:07:33;;;;;;;15.40;5.17;;;;;;;-2.15;73.79;103355.53;1656106;85;20953;-83
2022/12/19 15:10:07;;;;;;;11.78;6.42;;;;;;;-2.19;74.00;103364.81;1653399;85;21139;-86
2022/12/19 15:15:55;;;;;;;6.87;4.05;;;;;;;-2.24;74.42;103364.19;1656243;85;21153;-86
2022/12/19 15:18:40;;;;;;;5.15;4.37;;;;;;;-2.32;74.60;103364.76;1653232;85;21108;-86
2022/12/19 15:21:09;;;;;;;22.10;11.65;;;;;;;-2.39;75.08;103371.78;1655284;84;20985;-85
2022/12/19 15:23:37;;;;;;;17.73;12.63;;;;;;;-2.43;75.54;103370.31;1638476;86;20915;-85
2022/12/19 15:26:07;;;;;;;7.28;5.10;;;;;;;-2.48;75.83;103371.43;1676116;82;21139;-86
2022/12/19 15:28:42;;;;;;;5.90;4.62;;;;;;;-2.48;76.01;103367.99;1678419;82;21022;-86
2022/12/19 15:31:29;;;;;;;6.55;4.60;;;;;;;-2.45;76.24;103373.23;1689860;82;21357;-87
2022/12/19 15:33:57;;;;;;;6.78;3.72;;;;;;;-2.45;76.21;103369.38;1698126;82;20945;-82
2022/12/19 15:36:23;;;;;;;4.87;3.92;;;;;;;-2.45;76.16;103375.80;1698978;82;20944;-86
2022/12/19 15:38:50;;;;;;;3.58;3.17;;;;;;;-2.46;76.15;103363.79;1676522;84;20944;-86
2022/12/19 15:41:22;;;;;;;4.95;4.47;;;;;;;-2.49;75.88;103368.38;1697481;82;21241;-85
2022/12/19 15:43:49;;;;;;;5.70;4.50;;;;;;;-2.51;76.02;103372.19;1657700;83;20970;-86
2022/12/19 15:46:16;;;;;;;4.50;3.62;;;;;;;-2.49;76.17;103379.94;1655363;85;20977;-86
2022/12/19 15:48:46;;;;;;;7.60;6.10;;;;;;;-2.49;76.21;103391.50;1698014;82;20955;-85
2022/12/19 15:51:13;;;;;;;5.47;3.40;;;;;;;-2.47;76.08;103390.28;1697425;82;21011;-85
2022/12/19 15:53:40;;;;;;;6.33;3.80;;;;;;;-2.50;76.56;103390.62;1695342;82;21184;-86
2022/12/19 15:56:27;;;;;;;6.70;4.60;;;;;;;-2.47;76.51;103387.71;1690088;82;20866;-86
2022/12/19 15:58:56;;;;;;;8.00;4.10;;;;;;;-2.45;76.56;103384.38;1682367;84;21434;-85
2022/12/19 16:01:22;;;;;;;5.33;3.85;;;;;;;-2.45;76.37;103379.24;1678195;82;21114;-85
2022/12/19 16:03:49;;;;;;;5.62;4.03;;;;;;;-2.51;76.30;103390.17;1687469;82;20934;-86
2022/12/19 16:06:15;;;;;;;5.10;4.47;;;;;;;-2.56;76.64;103393.36;1673102;82;21126;-84
2022/12/19 16:08:42;;;;;;;8.65;4.80;;;;;;;-2.52;76.73;103404.23;1694436;82;20916;-86
2022/12/19 16:11:21;;;;;;;5.97;4.33;;;;;;;-2.52;76.88;103395.24;1696284;82;21446;-86
2022/12/19 16:13:56;;;;;;;4.60;3.77;;;;;;;-2.53;76.97;103398.64;1682451;82;20886;-86
2022/12/19 20:26:16;;;;;;;2.85;2.65;;;;;;;-2.01;78.21;103394.59;1678634;83;21295;-87
2022/12/19 20:28:44;;;;;;;3.55;3.25;;;;;;;-2.04;78.29;103400.92;1672445;82;21112;-87
2022/12/19 20:31:11;;;;;;;5.92;3.47;;;;;;;-2.04;78.25;103397.07;1676047;84;21020;-87
2022/12/19 20:33:39;;;;;;;4.28;3.50;;;;;;;-2.01;78.43;103403.18;1683809;83;20992;-87
2022/12/19 20:36:10;;;;;;;3.47;3.20;;;;;;;-1.95;78.37;103399.55;1711451;83;20936;-87
2022/12/19 20:38:37;;;;;;;6.22;4.12;;;;;;;-1.95;77.85;103399.97;1705718;83;21212;-86
2022/12/19 20:41:04;;;;;;;5.80;3.80;;;;;;;-2.01;77.87;103405.75;1672262;83;20983;-86
2022/12/19 20:43:32;;;;;;;3.52;3.22;;;;;;;-2.01;78.11;103407.45;1670173;83;20938;-87
2022/12/19 20:46:04;;;;;;;6.33;4.35;;;;;;;-1.95;77.94;103402.55;1668168;83;21786;-87
2022/12/19 20:48:31;;;;;;;3.27;2.98;;;;;;;-1.91;77.65;103409.56;1674972;83;20963;-86
2022/12/19 20:51:03;;;;;;;4.85;4.40;;;;;;;-1.92;77.13;103411.65;1666373;84;21279;-87
2022/12/19 20:53:34;;;;;;;4.25;2.90;;;;;;;-2.01;77.05;103408.73;1667146;83;20977;-86
2022/12/19 20:56:03;;;;;;;4.97;3.75;;;;;;;-2.04;77.19;103404.78;1679376;83;21571;-84